Time;durP1;ratioP1;P1;durP2;ratioP2;P2;SDS_P1;SDS_P2;PMS_P1;PMS_P2;Temp;Humidity;BMP_temperature;BMP_pressure;BME280_temperature;BME280_humidity;BME280_pressure;Samples;Min_cycle;Max_cycle;Signal;HPM_P1;HPM_P2
2023/01/08 00:10:11;;;;;;;4.70;1.70;;;10.00;99.90;;;;;;5054379;28;20260;-69
2023/01/08 00:12:40;;;;;;;5.07;1.63;;;9.90;99.90;;;;;;5055262;28;20193;-67
2023/01/08 00:15:09;;;;;;;2.63;1.30;;;9.90;99.90;;;;;;5056906;28;20184;-68
2023/01/08 00:17:37;;;;;;;3.17;1.47;;;9.80;99.90;;;;;;5074890;28;20306;-68
2023/01/08 00:20:06;;;;;;;1.63;1.53;;;9.70;99.90;;;;;;5073729;28;20212;-69
2023/01/08 00:22:35;;;;;;;4.73;1.57;;;9.60;99.90;;;;;;5073678;28;20611;-68
2023/01/08 00:25:04;;;;;;;3.10;1.40;;;9.50;99.90;;;;;;5074791;28;20684;-67
2023/01/08 00:27:34;;;;;;;1.40;1.30;;;9.50;99.90;;;;;;5072680;28;20192;-68
2023/01/08 00:30:02;;;;;;;4.47;1.37;;;9.50;99.90;;;;;;5055861;28;20189;-68
2023/01/08 00:32:31;;;;;;;3.23;1.40;;;9.50;99.90;;;;;;5074907;28;20211;-67
2023/01/08 00:35:00;;;;;;;3.13;1.90;;;9.40;99.90;;;;;;5074738;28;20195;-68
2023/01/08 00:37:28;;;;;;;2.60;1.40;;;9.40;99.90;;;;;;5074538;28;20194;-68
2023/01/08 00:39:57;;;;;;;3.00;1.10;;;9.40;99.90;;;;;;5072958;28;20241;-68
2023/01/08 00:42:25;;;;;;;1.50;1.40;;;9.30;99.90;;;;;;5074260;28;20275;-68
2023/01/08 00:44:55;;;;;;;1.40;1.30;;;9.30;99.90;;;;;;5074254;28;20267;-68
2023/01/08 00:47:23;;;;;;;2.93;1.53;;;9.30;99.90;;;;;;5071482;28;20196;-68
2023/01/08 00:49:52;;;;;;;2.27;1.47;;;9.20;99.90;;;;;;5054405;28;20276;-68
2023/01/08 00:52:20;;;;;;;3.97;1.43;;;9.20;99.90;;;;;;5057963;28;20203;-69
2023/01/08 00:54:48;;;;;;;4.73;1.63;;;9.20;99.90;;;;;;5073925;28;20192;-68
2023/01/08 00:57:17;;;;;;;3.30;1.30;;;9.20;99.90;;;;;;5072698;28;20211;-68
2023/01/08 00:59:45;;;;;;;4.20;1.50;;;9.20;99.90;;;;;;5058005;28;20224;-68
2023/01/08 01:02:15;;;;;;;3.33;1.50;;;9.30;99.90;;;;;;5054189;28;20216;-68
2023/01/08 01:04:46;;;;;;;3.17;1.57;;;9.30;99.90;;;;;;5074038;28;20269;-68
2023/01/08 01:07:14;;;;;;;1.70;1.30;;;9.20;99.90;;;;;;5073449;28;20199;-68
2023/01/08 01:09:42;;;;;;;2.23;1.50;;;9.20;99.90;;;;;;5073518;28;20191;-68
2023/01/08 01:12:11;;;;;;;3.73;1.40;;;9.20;99.90;;;;;;5073927;28;20185;-69
2023/01/08 01:14:39;;;;;;;1.40;1.30;;;9.30;99.90;;;;;;5074070;28;20188;-68
2023/01/08 01:17:08;;;;;;;1.40;1.40;;;9.20;99.90;;;;;;5073435;28;20224;-68
2023/01/08 01:19:38;;;;;;;4.23;1.43;;;9.20;99.90;;;;;;5072366;28;20278;-67
2023/01/08 01:22:06;;;;;;;4.33;1.33;;;9.20;99.90;;;;;;5073569;28;20246;-68
2023/01/08 01:24:34;;;;;;;2.67;1.50;;;9.20;99.90;;;;;;5073911;28;20550;-69
2023/01/08 01:27:03;;;;;;;1.47;1.33;;;9.20;99.90;;;;;;5106279;28;20188;-68
2023/01/08 01:29:31;;;;;;;5.47;1.70;;;9.10;99.90;;;;;;5073371;28;20188;-68
2023/01/08 01:31:59;;;;;;;3.13;1.50;;;9.10;99.90;;;;;;5072239;28;20180;-67
2023/01/08 01:34:28;;;;;;;2.27;1.60;;;9.10;99.90;;;;;;5073333;28;20207;-68
2023/01/08 01:36:58;;;;;;;1.70;1.60;;;9.10;99.90;;;;;;5052603;28;20197;-67
2023/01/08 01:39:26;;;;;;;3.67;1.60;;;9.10;99.90;;;;;;5053542;28;20204;-68
2023/01/08 01:41:55;;;;;;;3.00;1.63;;;9.00;99.90;;;;;;5053291;28;20212;-67
2023/01/08 01:44:39;;;;;;;1.60;1.50;;;9.00;99.90;;;;;;5053670;28;20193;-68
2023/01/08 01:47:19;;;;;;;3.17;1.90;;;9.00;99.90;;;;;;5053315;28;20177;-67
2023/01/08 01:49:53;;;;;;;4.83;1.70;;;9.00;99.90;;;;;;5053631;28;20235;-67
2023/01/08 01:52:24;;;;;;;3.10;1.70;;;8.90;99.90;;;;;;5053148;28;20185;-67
2023/01/08 01:54:53;;;;;;;4.13;1.93;;;8.90;99.90;;;;;;5051677;28;20197;-68
2023/01/08 01:57:22;;;;;;;4.27;2.27;;;8.90;99.90;;;;;;5053287;28;20213;-67
2023/01/08 01:59:50;;;;;;;3.57;2.10;;;8.90;99.90;;;;;;5053230;28;20275;-67
2023/01/08 02:07:12;;;;;;;2.73;2.10;;;8.90;99.90;;;;;;5077531;28;20162;-67
2023/01/08 02:09:48;;;;;;;2.37;2.17;;;9.00;99.90;;;;;;5076187;28;20677;-67
2023/01/08 02:12:22;;;;;;;5.93;2.17;;;9.00;99.90;;;;;;5076664;28;20270;-68
2023/01/08 02:15:03;;;;;;;5.13;2.17;;;9.00;99.90;;;;;;5077219;28;20202;-67
2023/01/08 02:17:39;;;;;;;4.73;2.47;;;9.00;99.90;;;;;;5076797;28;20220;-68
2023/01/08 02:20:12;;;;;;;5.60;2.80;;;9.10;99.90;;;;;;5077030;28;20198;-67
2023/01/08 02:22:53;;;;;;;4.77;2.60;;;9.10;99.90;;;;;;5076805;28;20215;-68
2023/01/08 02:25:37;;;;;;;9.27;2.97;;;9.10;99.90;;;;;;5076896;28;20204;-68
2023/01/08 02:28:11;;;;;;;5.03;2.63;;;9.20;99.90;;;;;;5059117;28;20220;-68
2023/01/08 02:30:40;;;;;;;5.50;2.83;;;9.20;99.90;;;;;;5076967;28;20282;-67
2023/01/08 02:33:08;;;;;;;5.90;2.90;;;9.30;99.90;;;;;;5076669;28;20223;-67
2023/01/08 02:35:51;;;;;;;5.77;3.00;;;9.30;99.90;;;;;;5076658;28;20192;-68
2023/01/08 02:38:20;;;;;;;4.17;2.63;;;9.30;99.90;;;;;;5075764;28;20550;-67
2023/01/08 02:40:56;;;;;;;4.63;2.83;;;9.30;99.90;;;;;;5076715;28;20208;-68
2023/01/08 02:43:33;;;;;;;4.43;2.80;;;9.30;99.90;;;;;;5076640;28;20279;-67
2023/01/08 02:46:02;;;;;;;7.47;2.60;;;9.30;99.90;;;;;;5076509;28;20180;-67
2023/01/08 02:48:36;;;;;;;8.97;2.40;;;9.30;99.90;;;;;;5076974;28;20637;-68
2023/01/08 02:51:08;;;;;;;3.63;2.07;;;9.30;99.90;;;;;;5076583;28;20195;-67
2023/01/08 02:53:40;;;;;;;3.00;2.27;;;9.30;99.90;;;;;;5076624;28;20206;-67
2023/01/08 02:56:13;;;;;;;3.07;2.00;;;9.30;99.90;;;;;;5071672;28;20200;-67
2023/01/08 02:58:46;;;;;;;2.00;1.90;;;9.40;99.90;;;;;;5088535;28;20217;-67
2023/01/08 03:01:18;;;;;;;3.63;1.90;;;9.40;99.90;;;;;;5056487;28;20193;-68
2023/01/08 03:03:52;;;;;;;4.00;2.00;;;9.30;99.90;;;;;;5056153;28;20192;-68
2023/01/08 03:06:21;;;;;;;2.53;1.80;;;9.30;99.90;;;;;;5061305;28;20200;-67
2023/01/08 03:08:52;;;;;;;3.97;1.83;;;9.30;99.90;;;;;;5074960;28;20245;-67
2023/01/08 03:11:23;;;;;;;3.17;1.73;;;9.20;99.90;;;;;;5076005;28;20180;-69
2023/01/08 03:13:57;;;;;;;2.90;1.63;;;9.20;99.90;;;;;;5076046;28;20541;-68
2023/01/08 03:16:30;;;;;;;1.97;1.60;;;9.10;99.90;;;;;;5076622;28;20252;-67
2023/01/08 03:19:07;;;;;;;4.40;1.70;;;9.10;99.90;;;;;;5076181;28;20223;-67
2023/01/08 03:21:37;;;;;;;4.53;1.80;;;9.10;99.90;;;;;;5076017;28;20223;-67
2023/01/08 03:24:08;;;;;;;4.77;1.77;;;9.00;99.90;;;;;;5075716;28;20188;-68
2023/01/08 03:26:39;;;;;;;3.83;1.70;;;8.90;99.90;;;;;;5074665;28;20188;-67
2023/01/08 03:29:14;;;;;;;4.40;1.70;;;8.90;99.90;;;;;;5074739;28;20199;-67
2023/01/08 03:31:44;;;;;;;2.00;1.43;;;8.90;99.90;;;;;;5075678;28;20584;-68
2023/01/08 03:34:14;;;;;;;2.47;1.50;;;8.90;99.90;;;;;;5075844;28;20192;-67
2023/01/08 03:36:46;;;;;;;3.07;1.63;;;8.90;99.90;;;;;;5074291;28;20634;-68
2023/01/08 03:39:18;;;;;;;3.90;1.60;;;8.90;99.90;;;;;;5074589;28;20196;-68
2023/01/08 03:41:49;;;;;;;3.13;1.60;;;8.90;99.90;;;;;;5074095;28;20212;-68
2023/01/08 03:44:19;;;;;;;1.90;1.70;;;8.90;99.90;;;;;;5076207;28;20200;-68
2023/01/08 03:46:52;;;;;;;5.97;1.77;;;8.90;99.90;;;;;;5075909;28;20200;-68
2023/01/08 03:49:22;;;;;;;5.03;1.97;;;8.80;99.90;;;;;;5075411;28;20200;-68
2023/01/08 03:51:50;;;;;;;2.03;1.57;;;8.80;99.90;;;;;;5075813;28;20543;-68
2023/01/08 03:54:21;;;;;;;5.80;1.67;;;8.80;99.90;;;;;;5075220;28;20270;-68
2023/01/08 03:56:49;;;;;;;1.63;1.53;;;8.70;99.90;;;;;;5074048;28;20196;-68
2023/01/08 03:59:19;;;;;;;3.47;2.17;;;8.70;99.90;;;;;;5075482;28;20202;-68
2023/01/08 04:06:25;;;;;;;4.97;1.63;;;8.60;99.90;;;;;;5075402;28;20352;-68
2023/01/08 04:13:37;;;;;;;9.13;2.00;;;8.50;99.90;;;;;;5075205;28;20230;-67
2023/01/08 04:16:08;;;;;;;5.47;2.27;;;8.40;99.90;;;;;;5073808;28;20277;-68
2023/01/08 04:18:36;;;;;;;2.23;1.37;;;8.30;99.90;;;;;;5074997;28;20281;-68
2023/01/08 04:21:04;;;;;;;3.13;1.50;;;8.20;99.90;;;;;;5073444;28;20558;-67
2023/01/08 04:23:33;;;;;;;6.90;1.50;;;8.10;99.90;;;;;;5074838;28;20670;-67
2023/01/08 04:26:04;;;;;;;4.17;1.73;;;8.10;99.90;;;;;;5073580;28;20192;-68
2023/01/08 04:28:33;;;;;;;6.63;1.80;;;8.00;99.90;;;;;;5074074;28;20180;-69
2023/01/08 04:31:07;;;;;;;4.40;1.57;;;8.00;99.90;;;;;;5073797;28;20196;-69
2023/01/08 04:33:35;;;;;;;5.43;1.67;;;7.90;99.90;;;;;;5073462;28;20215;-68
2023/01/08 04:36:05;;;;;;;5.50;1.80;;;7.90;99.90;;;;;;5085535;28;20214;-68
2023/01/08 04:38:33;;;;;;;10.00;2.60;;;7.80;99.90;;;;;;5076753;28;20287;-68
2023/01/08 04:41:02;;;;;;;7.97;1.90;;;7.70;99.90;;;;;;5094578;28;20198;-68
2023/01/08 04:43:31;;;;;;;8.13;1.93;;;7.70;99.90;;;;;;5093769;28;20215;-68
2023/01/08 04:46:01;;;;;;;8.53;1.80;;;7.70;99.90;;;;;;5094631;28;20286;-67
2023/01/08 04:48:31;;;;;;;4.33;2.00;;;7.60;99.90;;;;;;5094502;28;20215;-68
2023/01/08 04:51:00;;;;;;;9.63;2.00;;;7.60;99.90;;;;;;5094652;28;20191;-67
2023/01/08 04:53:30;;;;;;;12.50;2.30;;;7.60;99.90;;;;;;5094576;28;20555;-67
2023/01/08 04:56:03;;;;;;;10.83;2.47;;;7.50;99.90;;;;;;5094464;28;20191;-67
2023/01/08 04:58:32;;;;;;;4.83;1.93;;;7.50;99.90;;;;;;5091773;28;20210;-67
2023/01/08 05:01:01;;;;;;;11.00;2.40;;;7.50;99.90;;;;;;5106579;28;20200;-68
2023/01/08 05:04:01;;;;;;;7.50;1.97;;;7.40;99.90;;;;;;5074105;28;20201;-67
2023/01/08 05:06:31;;;;;;;7.03;2.10;;;7.30;99.90;;;;;;5056604;28;20267;-67
2023/01/08 05:09:00;;;;;;;5.00;1.80;;;7.30;99.90;;;;;;5073883;28;20184;-68
2023/01/08 05:11:28;;;;;;;8.33;2.37;;;7.30;99.90;;;;;;5073722;28;20570;-68
2023/01/08 05:13:57;;;;;;;8.23;2.23;;;7.30;99.90;;;;;;5073941;28;20195;-67
2023/01/08 05:16:25;;;;;;;7.87;2.00;;;7.30;99.90;;;;;;5072478;28;20184;-67
2023/01/08 05:18:53;;;;;;;6.87;2.40;;;7.30;99.90;;;;;;5072664;28;20238;-68
2023/01/08 05:21:23;;;;;;;4.83;1.80;;;7.30;99.90;;;;;;5072579;28;20646;-67
2023/01/08 05:23:51;;;;;;;13.20;2.23;;;7.20;99.90;;;;;;5072666;28;20302;-67
2023/01/08 05:26:20;;;;;;;10.50;2.13;;;7.20;99.90;;;;;;5073701;28;20192;-67
2023/01/08 05:28:48;;;;;;;7.07;2.27;;;7.20;99.90;;;;;;5073848;28;20198;-67
2023/01/08 05:31:17;;;;;;;7.03;2.40;;;7.20;99.90;;;;;;5073788;28;20196;-67
2023/01/08 05:33:45;;;;;;;8.87;2.20;;;7.10;99.90;;;;;;5072230;28;20194;-67
2023/01/08 05:36:14;;;;;;;10.40;2.10;;;7.10;99.90;;;;;;5089185;28;20195;-68
2023/01/08 05:38:44;;;;;;;6.03;1.87;;;7.10;99.90;;;;;;5071945;28;20184;-68
2023/01/08 05:41:12;;;;;;;5.33;2.17;;;7.10;99.90;;;;;;5073345;28;20191;-67
2023/01/08 05:43:40;;;;;;;17.07;2.10;;;7.10;99.90;;;;;;5072888;28;20208;-68
2023/01/08 05:46:09;;;;;;;9.23;2.43;;;7.10;99.90;;;;;;5073219;28;20196;-67
2023/01/08 05:48:37;;;;;;;5.77;2.20;;;7.20;99.90;;;;;;5071973;28;20196;-68
2023/01/08 05:51:06;;;;;;;12.53;1.90;;;7.20;99.90;;;;;;5073707;28;20181;-68
2023/01/08 05:53:34;;;;;;;7.27;1.80;;;7.20;99.90;;;;;;5072108;28;20282;-67
2023/01/08 05:56:06;;;;;;;8.80;2.00;;;7.30;99.90;;;;;;5073297;28;20279;-67
2023/01/08 05:58:36;;;;;;;6.03;1.90;;;7.30;99.90;;;;;;5071927;28;20274;-67
2023/01/08 06:01:08;;;;;;;7.77;2.30;;;7.30;99.90;;;;;;5071996;28;20195;-68
2023/01/08 06:08:21;;;;;;;6.13;1.83;;;7.30;99.90;;;;;;5073520;28;20206;-68
2023/01/08 06:10:49;;;;;;;7.53;1.90;;;7.40;99.90;;;;;;5073374;28;20210;-67
2023/01/08 06:13:19;;;;;;;8.17;2.00;;;7.40;99.90;;;;;;5073430;28;20184;-67
2023/01/08 06:15:47;;;;;;;8.73;1.83;;;7.40;99.90;;;;;;5072868;28;20230;-67
2023/01/08 06:18:16;;;;;;;12.70;2.47;;;7.40;99.90;;;;;;5073386;28;20232;-67
2023/01/08 06:20:45;;;;;;;11.03;2.30;;;7.40;99.90;;;;;;5072993;28;20204;-67
2023/01/08 06:23:13;;;;;;;3.30;2.10;;;7.50;99.90;;;;;;5073403;28;20208;-67
2023/01/08 06:25:41;;;;;;;10.13;2.53;;;7.50;99.90;;;;;;5073534;28;20639;-68
2023/01/08 06:28:10;;;;;;;8.23;2.27;;;7.50;99.90;;;;;;5054965;28;20200;-68
2023/01/08 06:30:39;;;;;;;5.37;1.80;;;7.50;99.90;;;;;;5070631;28;20639;-67
2023/01/08 06:33:08;;;;;;;8.13;2.40;;;7.50;99.90;;;;;;5052927;28;20272;-67
2023/01/08 06:35:36;;;;;;;6.77;2.00;;;7.40;99.90;;;;;;5052897;28;20192;-68
2023/01/08 06:38:05;;;;;;;7.60;1.80;;;7.40;99.90;;;;;;5053028;28;20196;-67
2023/01/08 06:40:33;;;;;;;10.37;2.23;;;7.40;99.90;;;;;;5052804;28;20647;-68
2023/01/08 06:43:02;;;;;;;6.43;2.43;;;7.40;99.90;;;;;;5052299;28;20220;-68
2023/01/08 06:45:31;;;;;;;7.87;2.07;;;7.40;99.90;;;;;;5052806;28;20208;-68
2023/01/08 06:48:02;;;;;;;12.10;2.23;;;7.40;99.90;;;;;;5052906;28;20268;-67
2023/01/08 06:50:32;;;;;;;10.47;2.57;;;7.40;99.90;;;;;;5052737;28;20192;-67
2023/01/08 06:53:00;;;;;;;9.00;1.93;;;7.40;99.90;;;;;;5063078;28;20525;-67
2023/01/08 06:55:28;;;;;;;9.17;2.30;;;7.50;99.90;;;;;;5058388;28;20196;-68
2023/01/08 06:57:58;;;;;;;8.17;2.43;;;7.50;99.90;;;;;;5076353;28;20696;-68
2023/01/08 07:00:27;;;;;;;4.60;1.80;;;7.50;99.90;;;;;;5074867;28;20222;-68
2023/01/08 07:02:56;;;;;;;11.63;2.40;;;7.50;99.90;;;;;;5076452;28;20189;-68
2023/01/08 07:05:25;;;;;;;9.33;2.10;;;7.60;99.90;;;;;;5076342;28;20681;-68
2023/01/08 07:07:54;;;;;;;9.47;2.27;;;7.50;99.90;;;;;;5076548;28;20250;-68
2023/01/08 07:10:23;;;;;;;9.33;2.10;;;7.60;99.90;;;;;;5076545;28;20188;-67
2023/01/08 07:12:51;;;;;;;11.80;2.60;;;7.60;99.90;;;;;;5074732;28;20282;-68
2023/01/08 07:15:19;;;;;;;5.67;2.17;;;7.60;99.90;;;;;;5073539;28;20555;-68
2023/01/08 07:17:49;;;;;;;5.57;2.10;;;7.70;99.90;;;;;;5076227;28;20224;-68
2023/01/08 07:20:18;;;;;;;5.80;2.60;;;7.60;99.90;;;;;;5076217;28;20192;-68
2023/01/08 07:22:47;;;;;;;14.07;2.40;;;7.60;99.90;;;;;;5074681;28;20206;-69
2023/01/08 07:25:16;;;;;;;6.20;2.37;;;7.60;99.90;;;;;;5075985;28;20211;-68
2023/01/08 07:27:44;;;;;;;16.47;2.57;;;7.70;99.90;;;;;;5075953;28;20598;-68
2023/01/08 07:30:13;;;;;;;9.57;2.07;;;7.70;99.90;;;;;;5075668;28;20195;-67
2023/01/08 07:32:59;;;;;;;12.00;2.10;;;7.70;99.90;;;;;;5076027;28;20242;-67
2023/01/08 07:35:28;;;;;;;9.17;2.20;;;7.60;99.90;;;;;;5075888;28;20192;-68
2023/01/08 07:37:58;;;;;;;8.27;2.47;;;7.60;99.90;;;;;;5075567;28;20666;-68
2023/01/08 07:40:26;;;;;;;7.47;2.53;;;7.60;99.90;;;;;;5075731;28;20219;-67
2023/01/08 07:42:59;;;;;;;10.87;2.30;;;7.70;99.90;;;;;;5074315;28;20211;-69
2023/01/08 07:45:27;;;;;;;10.20;2.43;;;7.70;99.90;;;;;;5075820;28;20725;-68
2023/01/08 07:47:57;;;;;;;8.87;2.50;;;7.70;99.90;;;;;;5075613;28;20188;-67
2023/01/08 07:50:27;;;;;;;8.10;2.40;;;7.60;99.90;;;;;;5075323;28;20188;-67
2023/01/08 07:52:59;;;;;;;10.43;2.70;;;7.60;99.90;;;;;;5075319;28;20192;-68
2023/01/08 07:55:29;;;;;;;9.63;2.40;;;7.50;99.90;;;;;;5074358;28;20264;-68
2023/01/08 07:57:58;;;;;;;11.63;3.10;;;7.50;99.90;;;;;;5075691;28;20220;-67
2023/01/08 08:00:26;;;;;;;6.40;2.30;;;7.50;99.90;;;;;;5074979;28;20192;-68
2023/01/08 08:07:39;;;;;;;6.80;2.53;;;7.40;99.90;;;;;;5075012;28;20175;-68
2023/01/08 08:14:46;;;;;;;12.20;2.70;;;7.40;99.90;;;;;;5054993;28;20160;-67
2023/01/08 08:17:14;;;;;;;11.23;2.70;;;7.40;99.90;;;;;;5054803;28;20229;-67
2023/01/08 08:19:44;;;;;;;4.37;2.30;;;7.40;99.90;;;;;;5055543;28;20668;-67
2023/01/08 08:22:15;;;;;;;8.90;2.50;;;7.40;99.90;;;;;;5074735;28;20192;-67
2023/01/08 08:24:43;;;;;;;11.90;2.40;;;7.40;99.90;;;;;;5073811;28;20212;-68
2023/01/08 08:27:11;;;;;;;8.10;2.90;;;7.40;99.90;;;;;;5074606;28;20196;-67
2023/01/08 08:29:39;;;;;;;17.50;3.40;;;7.40;99.90;;;;;;5074558;28;20198;-67
2023/01/08 08:32:09;;;;;;;11.60;2.77;;;7.30;99.90;;;;;;5107116;28;20196;-67
2023/01/08 08:34:37;;;;;;;6.23;2.33;;;7.30;99.90;;;;;;5074701;28;20193;-67
2023/01/08 08:37:05;;;;;;;10.70;2.70;;;7.30;99.90;;;;;;5107026;28;20192;-67
2023/01/08 08:39:34;;;;;;;5.93;2.50;;;7.40;99.90;;;;;;5056651;28;20535;-67
2023/01/08 08:42:02;;;;;;;8.03;2.50;;;7.40;99.90;;;;;;5073354;28;20193;-67
2023/01/08 08:44:30;;;;;;;8.10;2.70;;;7.40;99.90;;;;;;5074786;28;20539;-67
2023/01/08 08:46:59;;;;;;;5.67;2.37;;;7.40;99.90;;;;;;5074063;28;20200;-67
2023/01/08 08:49:28;;;;;;;7.53;2.67;;;7.50;99.90;;;;;;5074099;28;20184;-67
2023/01/08 08:51:57;;;;;;;9.50;2.40;;;7.50;99.90;;;;;;5074403;28;20242;-67
2023/01/08 08:54:25;;;;;;;6.67;2.60;;;7.50;99.90;;;;;;5074020;28;20188;-67
2023/01/08 08:56:53;;;;;;;3.00;2.27;;;7.50;99.90;;;;;;5072548;28;20554;-67
2023/01/08 08:59:22;;;;;;;10.87;2.23;;;7.60;99.90;;;;;;5073064;28;20556;-67
2023/01/08 09:01:50;;;;;;;2.47;2.00;;;7.70;99.90;;;;;;5060495;28;20207;-67
2023/01/08 09:04:19;;;;;;;4.90;2.27;;;7.70;99.90;;;;;;5053783;28;20227;-67
2023/01/08 09:06:48;;;;;;;5.00;2.10;;;7.70;99.90;;;;;;5052851;28;20228;-67
2023/01/08 09:09:17;;;;;;;3.13;2.10;;;7.80;99.90;;;;;;5062328;28;20254;-67
2023/01/08 09:11:45;;;;;;;2.33;1.67;;;7.90;99.90;;;;;;5073703;28;20192;-67
2023/01/08 09:14:13;;;;;;;4.77;1.43;;;8.00;99.90;;;;;;5071737;28;20201;-68
2023/01/08 09:16:42;;;;;;;3.60;1.77;;;8.00;99.90;;;;;;5074160;28;20220;-67
2023/01/08 09:19:10;;;;;;;3.70;1.70;;;8.10;99.90;;;;;;5073347;28;20224;-67
2023/01/08 09:21:38;;;;;;;1.50;1.40;;;8.20;99.90;;;;;;5074086;28;20196;-67
2023/01/08 09:24:09;;;;;;;2.00;1.80;;;8.20;99.90;;;;;;5073363;28;20190;-67
2023/01/08 09:31:21;;;;;;;1.80;1.60;;;8.40;99.90;;;;;;5073731;28;20194;-67
2023/01/08 09:38:39;;;;;;;1.33;1.23;;;8.80;99.90;;;;;;5073946;28;20163;-67
2023/01/08 09:41:11;;;;;;;1.37;1.37;;;9.00;99.90;;;;;;5073482;28;20665;-67
2023/01/08 09:43:44;;;;;;;1.97;1.87;;;9.00;99.90;;;;;;5073945;28;20187;-67
2023/01/08 09:46:14;;;;;;;3.20;1.40;;;9.10;99.90;;;;;;5073284;28;20222;-67
2023/01/08 09:48:43;;;;;;;1.57;1.43;;;9.20;99.90;;;;;;5072067;28;20192;-67
2023/01/08 09:51:13;;;;;;;1.20;1.20;;;9.30;99.90;;;;;;5072854;28;20706;-67
2023/01/08 09:53:42;;;;;;;2.57;1.30;;;9.30;99.90;;;;;;5073255;28;20191;-67
2023/01/08 09:56:15;;;;;;;1.70;1.60;;;9.40;99.90;;;;;;5071874;28;20738;-67
2023/01/08 09:58:45;;;;;;;1.77;1.67;;;9.50;99.90;;;;;;5073270;28;20214;-67
2023/01/08 10:01:15;;;;;;;2.70;1.60;;;9.70;99.90;;;;;;5073168;28;20226;-67
2023/01/08 10:08:29;;;;;;;1.93;1.50;;;10.00;99.90;;;;;;5053287;28;20231;-67
2023/01/08 10:15:49;;;;;;;2.00;1.53;;;10.40;99.90;;;;;;5053060;28;20164;-67
2023/01/08 10:18:23;;;;;;;4.07;1.80;;;10.60;99.90;;;;;;5052978;28;20270;-68
2023/01/08 10:20:51;;;;;;;2.00;1.70;;;10.60;99.90;;;;;;5052911;28;20193;-68
2023/01/08 10:23:22;;;;;;;2.00;1.90;;;10.50;99.90;;;;;;5053026;28;20509;-68
2023/01/08 10:30:35;;;;;;;1.63;1.50;;;10.60;99.90;;;;;;5057700;28;20668;-67
2023/01/08 10:33:06;;;;;;;1.73;1.50;;;10.60;99.90;;;;;;5057389;28;20665;-67
2023/01/08 10:35:37;;;;;;;4.13;1.63;;;10.60;99.90;;;;;;5055507;28;20572;-67
2023/01/08 10:38:06;;;;;;;3.67;1.63;;;10.60;99.90;;;;;;5056732;28;20207;-67
2023/01/08 10:40:38;;;;;;;1.50;1.40;;;10.70;99.90;;;;;;5056593;28;20660;-67
2023/01/08 10:43:09;;;;;;;4.97;1.80;;;10.70;99.90;;;;;;5062295;28;20200;-67
2023/01/08 10:45:40;;;;;;;3.67;1.60;;;10.60;99.90;;;;;;5076785;28;20333;-68
2023/01/08 10:48:18;;;;;;;3.27;1.70;;;10.50;99.90;;;;;;5076727;28;20192;-68
2023/01/08 10:50:46;;;;;;;1.80;1.40;;;10.50;99.90;;;;;;5076427;28;20196;-67
2023/01/08 10:53:24;;;;;;;3.73;1.53;;;10.60;99.90;;;;;;5076343;28;20283;-68
2023/01/08 10:56:00;;;;;;;2.60;1.60;;;10.50;99.90;;;;;;5076550;28;20276;-67
2023/01/08 10:58:29;;;;;;;5.30;1.60;;;10.50;99.90;;;;;;5076190;28;20574;-68
2023/01/08 11:01:10;;;;;;;4.63;1.90;;;10.60;99.90;;;;;;5076309;28;20188;-68
2023/01/08 11:04:24;;;;;;;4.27;1.80;;;10.60;99.90;;;;;;5076536;28;20229;-68
2023/01/08 11:06:58;;;;;;;4.50;1.67;;;10.70;99.90;;;;;;5109394;28;20234;-67
2023/01/08 11:09:30;;;;;;;4.17;1.87;;;10.80;99.90;;;;;;5075088;28;20183;-68
2023/01/08 11:12:00;;;;;;;5.20;2.00;;;10.80;99.90;;;;;;5076328;28;20677;-67
2023/01/08 11:14:33;;;;;;;5.73;1.90;;;10.70;99.90;;;;;;5076161;28;20662;-67
2023/01/08 11:17:08;;;;;;;7.33;2.27;;;10.80;99.90;;;;;;5076257;28;20191;-68
2023/01/08 11:19:38;;;;;;;5.57;1.70;;;10.90;99.90;;;;;;5108859;28;20191;-67
2023/01/08 11:22:18;;;;;;;4.03;1.77;;;10.70;99.90;;;;;;5075983;28;20305;-68
2023/01/08 11:24:49;;;;;;;8.10;1.97;;;10.60;99.90;;;;;;5070752;28;20196;-67
2023/01/08 11:32:34;;;;;;;3.27;1.50;;;10.50;99.90;;;;;;5075809;28;20637;-67
2023/01/08 11:35:13;;;;;;;6.27;1.83;;;10.60;99.90;;;;;;5074354;28;20329;-67
2023/01/08 11:37:48;;;;;;;8.10;1.80;;;10.40;99.90;;;;;;5073515;28;20196;-67
2023/01/08 11:40:22;;;;;;;5.80;1.97;;;10.40;99.90;;;;;;5075505;28;20188;-67
2023/01/08 11:43:11;;;;;;;4.40;1.70;;;10.70;99.90;;;;;;5075520;28;20215;-67
2023/01/08 11:59:12;;;;;;;5.37;1.93;;;10.50;99.90;;;;;;5055399;28;20563;-68
2023/01/08 12:01:56;;;;;;;7.40;2.37;;;10.30;99.90;;;;;;5055133;28;20192;-67
2023/01/08 12:04:57;;;;;;;4.03;1.97;;;10.40;99.90;;;;;;5087864;28;20246;-67
2023/01/08 12:07:32;;;;;;;2.43;1.67;;;10.60;99.90;;;;;;5043344;28;20318;-67
2023/01/08 12:10:05;;;;;;;1.70;1.60;;;10.80;99.90;;;;;;5055100;28;20531;-67
2023/01/08 12:12:47;;;;;;;5.27;1.70;;;11.00;99.90;;;;;;5054937;28;20195;-67
2023/01/08 12:15:25;;;;;;;4.23;1.67;;;11.00;99.90;;;;;;5055329;28;20193;-67
2023/01/08 12:18:19;;;;;;;5.73;1.37;;;11.00;99.90;;;;;;5053898;28;20281;-68
2023/01/08 12:20:56;;;;;;;6.27;1.80;;;10.80;99.90;;;;;;5027277;28;20223;-69
2023/01/08 12:23:37;;;;;;;4.67;1.90;;;10.60;99.90;;;;;;5073415;28;20200;-67
2023/01/08 12:26:18;;;;;;;7.93;1.93;;;10.40;99.90;;;;;;5074890;28;20204;-68
2023/01/08 12:29:13;;;;;;;6.47;1.90;;;10.50;99.90;;;;;;5073898;28;20187;-67
2023/01/08 12:31:55;;;;;;;6.73;1.97;;;10.50;99.90;;;;;;5070836;28;20574;-68
2023/01/08 12:34:44;;;;;;;6.93;2.27;;;10.40;99.90;;;;;;5057329;28;20208;-68
2023/01/08 12:37:18;;;;;;;3.80;1.63;;;10.40;99.90;;;;;;5054665;28;20643;-68
2023/01/08 12:39:51;;;;;;;5.70;1.73;;;10.50;99.90;;;;;;5056819;28;20632;-68
2023/01/08 12:42:23;;;;;;;5.20;1.50;;;10.50;99.90;;;;;;5054777;28;20259;-67
2023/01/08 12:44:54;;;;;;;6.40;1.70;;;10.40;99.90;;;;;;5070064;28;20184;-67
2023/01/08 12:47:28;;;;;;;8.30;1.67;;;10.40;99.90;;;;;;5069748;28;20567;-67
2023/01/08 12:50:15;;;;;;;4.57;1.53;;;10.50;99.90;;;;;;5053530;28;20193;-67
2023/01/08 12:52:52;;;;;;;9.27;2.40;;;10.50;99.90;;;;;;5058642;28;20192;-67
2023/01/08 12:55:33;;;;;;;5.47;2.10;;;10.50;99.90;;;;;;5054239;28;20195;-67
2023/01/08 12:58:13;;;;;;;3.33;1.87;;;10.50;99.90;;;;;;5053358;28;20287;-68
2023/01/08 13:00:51;;;;;;;4.67;1.53;;;10.40;99.90;;;;;;5054176;28;20617;-68
2023/01/08 13:03:24;;;;;;;5.73;1.90;;;10.60;99.90;;;;;;5053139;28;20184;-67
2023/01/08 13:06:04;;;;;;;4.23;1.70;;;10.70;99.90;;;;;;5053857;28;20219;-67
2023/01/08 13:08:34;;;;;;;5.80;2.43;;;10.70;99.90;;;;;;5053655;28;20211;-68
2023/01/08 13:11:03;;;;;;;6.70;2.83;;;10.60;99.90;;;;;;5073603;28;20192;-67
2023/01/08 13:13:34;;;;;;;1.93;1.67;;;10.60;99.90;;;;;;5073781;28;20188;-67
2023/01/08 13:16:18;;;;;;;6.67;1.90;;;10.70;99.90;;;;;;5073848;28;20218;-67
2023/01/08 13:18:56;;;;;;;4.33;1.70;;;10.60;99.90;;;;;;5073416;28;20571;-67
2023/01/08 13:25:51;;;;;;;5.73;1.80;;;10.60;99.90;;;;;;5053471;28;20241;-68
2023/01/08 13:28:28;;;;;;;6.17;1.93;;;10.80;99.90;;;;;;5052232;28;20299;-67
2023/01/08 13:31:08;;;;;;;4.63;1.90;;;10.70;99.90;;;;;;5053492;28;20199;-68
2023/01/08 13:33:40;;;;;;;5.30;1.80;;;10.80;99.90;;;;;;5053555;28;20769;-68
2023/01/08 13:36:22;;;;;;;4.87;1.97;;;10.80;99.90;;;;;;5052568;28;20279;-68
2023/01/08 13:43:18;;;;;;;3.97;1.70;;;10.70;99.90;;;;;;5054782;28;20643;-68
2023/01/08 13:45:54;;;;;;;3.93;2.00;;;10.60;99.90;;;;;;5073306;28;20604;-67
2023/01/08 13:48:24;;;;;;;10.40;2.13;;;10.50;99.90;;;;;;5073212;28;20303;-67
2023/01/08 13:50:53;;;;;;;5.73;1.90;;;10.50;99.90;;;;;;5072130;28;20214;-67
2023/01/08 13:53:24;;;;;;;8.03;2.00;;;10.50;99.90;;;;;;5072221;28;20192;-68
2023/01/08 13:55:56;;;;;;;5.97;2.00;;;10.50;99.90;;;;;;5072043;28;20192;-68
2023/01/08 13:58:27;;;;;;;4.10;1.90;;;10.50;99.90;;;;;;5057424;28;20707;-67
2023/01/08 14:01:00;;;;;;;5.33;1.93;;;10.50;99.90;;;;;;5053273;28;20193;-67
2023/01/08 14:03:30;;;;;;;4.87;1.80;;;10.60;99.90;;;;;;5051879;28;20188;-68
2023/01/08 14:06:16;;;;;;;5.77;1.70;;;10.60;99.90;;;;;;5053301;28;20193;-68
2023/01/08 14:08:54;;;;;;;8.33;2.00;;;10.60;99.90;;;;;;5053222;28;20194;-68
2023/01/08 14:11:25;;;;;;;7.17;2.20;;;10.60;99.90;;;;;;5051890;28;20318;-67
2023/01/08 14:13:54;;;;;;;5.57;2.43;;;10.60;99.90;;;;;;5067944;28;20199;-67
2023/01/08 14:16:23;;;;;;;4.20;1.77;;;10.60;99.90;;;;;;5073604;28;20214;-68
2023/01/08 14:18:52;;;;;;;8.87;2.37;;;10.60;99.90;;;;;;5071886;28;20230;-68
2023/01/08 14:21:22;;;;;;;4.77;1.90;;;10.50;99.90;;;;;;5071920;28;20194;-68
2023/01/08 14:23:53;;;;;;;6.67;2.00;;;10.50;99.90;;;;;;5073243;28;20192;-68
2023/01/08 14:26:28;;;;;;;2.77;2.07;;;10.40;99.90;;;;;;5073254;28;20561;-69
2023/01/08 14:28:56;;;;;;;7.13;1.93;;;10.50;99.90;;;;;;5073421;28;20248;-68
2023/01/08 14:31:27;;;;;;;9.93;1.83;;;10.60;99.90;;;;;;5073161;28;20614;-68
2023/01/08 14:38:33;;;;;;;10.73;2.50;;;10.40;99.90;;;;;;5073248;28;20172;-68
2023/01/08 14:41:06;;;;;;;7.73;2.20;;;10.30;99.90;;;;;;5071648;28;20725;-68
2023/01/08 14:43:41;;;;;;;5.07;2.13;;;10.20;99.90;;;;;;5072927;28;20187;-68
2023/01/08 14:46:19;;;;;;;11.73;2.20;;;10.20;99.90;;;;;;5072097;28;20196;-68
2023/01/08 14:48:49;;;;;;;8.97;2.00;;;10.10;99.90;;;;;;5071448;28;20215;-68